createdAt,value
2023-03-21T00:00:42.852Z,34.00
2023-03-21T00:03:10.100Z,33.00
2023-03-21T00:05:51.907Z,36.00
2023-03-21T00:08:20.741Z,36.40
2023-03-21T00:10:47.985Z,30.50
2023-03-21T00:13:16.087Z,32.10
2023-03-21T00:18:47.429Z,34.30
2023-03-21T00:24:08.181Z,33.10
2023-03-21T00:26:35.769Z,31.90
2023-03-21T00:29:02.722Z,34.30
2023-03-21T00:31:29.613Z,36.30
2023-03-21T00:33:57.045Z,38.80
2023-03-21T00:36:26.098Z,35.40
2023-03-21T00:38:53.872Z,35.90
2023-03-21T00:41:35.011Z,37.30
2023-03-21T00:44:07.815Z,37.30
2023-03-21T00:46:45.627Z,38.10
2023-03-21T00:49:14.241Z,38.50
2023-03-21T00:51:41.131Z,33.90
2023-03-21T00:54:08.049Z,38.30
2023-03-21T00:56:34.953Z,38.20
2023-03-21T00:59:01.816Z,36.50
2023-03-21T01:01:32.352Z,37.60
2023-03-21T01:04:04.828Z,36.50
2023-03-21T01:06:39.607Z,34.80
2023-03-21T01:09:11.806Z,36.40
2023-03-21T01:11:38.715Z,41.00
2023-03-21T01:14:21.495Z,38.90
2023-03-21T01:16:51.343Z,35.30
2023-03-21T01:19:27.457Z,36.50
2023-03-21T01:24:25.896Z,34.30
2023-03-21T01:26:52.776Z,44.20
2023-03-21T01:29:20.051Z,39.00
2023-03-21T01:31:47.325Z,39.00
2023-03-21T01:34:14.347Z,38.20
2023-03-21T01:36:41.494Z,39.60
2023-03-21T01:39:13.263Z,39.20
2023-03-21T01:41:44.306Z,36.40
2023-03-21T01:44:29.808Z,38.50
2023-03-21T01:47:11.023Z,40.70
2023-03-21T01:49:49.942Z,40.80
2023-03-21T01:52:52.183Z,41.40
2023-03-21T01:55:26.621Z,40.40
2023-03-21T01:58:06.979Z,39.90
2023-03-21T02:00:57.804Z,40.90
2023-03-21T02:03:38.454Z,37.50
2023-03-21T02:06:40.972Z,41.00
2023-03-21T02:09:19.822Z,40.80
2023-03-21T02:11:47.312Z,39.90
2023-03-21T02:14:23.394Z,38.70
2023-03-21T02:17:19.671Z,37.70
2023-03-21T02:20:09.054Z,38.80
2023-03-21T02:22:54.205Z,42.10
2023-03-21T02:25:33.328Z,39.40
2023-03-21T02:28:09.870Z,38.60
2023-03-21T02:31:04.791Z,38.90
2023-03-21T02:33:57.567Z,37.50
2023-03-21T02:36:38.237Z,39.50
2023-03-21T02:39:31.918Z,38.40
2023-03-21T02:42:11.454Z,42.60
2023-03-21T02:44:50.520Z,40.10
2023-03-21T02:47:38.507Z,39.50
2023-03-21T02:50:22.019Z,43.80
2023-03-21T02:52:50.321Z,38.50
2023-03-21T02:55:23.041Z,38.10
2023-03-21T02:57:57.036Z,41.70
2023-03-21T03:00:29.788Z,42.20
2023-03-21T03:03:08.730Z,42.80
2023-03-21T03:05:48.247Z,40.70
2023-03-21T03:08:37.581Z,36.40
2023-03-21T03:11:48.601Z,41.00
2023-03-21T03:14:49.579Z,40.20
2023-03-21T03:17:37.479Z,36.40
2023-03-21T03:20:24.868Z,37.10
2023-03-21T03:23:12.169Z,35.20
2023-03-21T03:25:52.641Z,35.40
2023-03-21T03:28:26.822Z,36.30
2023-03-21T03:31:08.090Z,37.10
2023-03-21T03:33:48.218Z,38.20
2023-03-21T03:36:33.622Z,38.60
2023-03-21T03:39:10.480Z,38.50
2023-03-21T03:42:21.698Z,35.60
2023-03-21T03:44:41.649Z,34.20
2023-03-21T03:47:17.526Z,37.50
2023-03-21T03:49:55.261Z,31.80
2023-03-21T03:52:29.812Z,30.90
2023-03-21T03:55:05.218Z,33.70
2023-03-21T03:57:34.738Z,36.50
2023-03-21T04:00:01.642Z,37.60
2023-03-21T04:02:47.176Z,37.80
2023-03-21T04:05:21.478Z,35.10
2023-03-21T04:07:51.204Z,35.10
2023-03-21T04:10:22.188Z,37.00
2023-03-21T04:12:49.942Z,38.30
2023-03-21T04:15:39.705Z,38.10
2023-03-21T04:18:11.543Z,38.90
2023-03-21T04:20:38.495Z,36.10
2023-03-21T04:23:06.745Z,39.20
2023-03-21T04:25:44.619Z,37.20
2023-03-21T04:28:17.843Z,37.60
2023-03-21T04:31:02.367Z,35.80
2023-03-21T04:33:38.679Z,37.30
2023-03-21T04:36:09.601Z,36.10
2023-03-21T04:38:37.337Z,40.70
2023-03-21T04:41:04.692Z,36.10
2023-03-21T04:43:32.246Z,36.60
2023-03-21T04:45:59.345Z,33.90
2023-03-21T04:48:27.703Z,35.60
2023-03-21T04:50:55.105Z,35.00
2023-03-21T04:53:22.035Z,34.50
2023-03-21T04:55:52.433Z,36.90
2023-03-21T04:58:20.616Z,33.50
2023-03-21T05:00:48.046Z,33.80
2023-03-21T05:03:19.637Z,32.20
2023-03-21T05:05:48.287Z,34.40
2023-03-21T05:08:16.114Z,34.40
2023-03-21T05:10:43.610Z,33.10
2023-03-21T05:13:10.996Z,35.50
2023-03-21T05:15:38.347Z,33.70
2023-03-21T05:18:10.451Z,31.80
2023-03-21T05:20:43.130Z,31.90
2023-03-21T05:23:11.848Z,29.20
2023-03-21T05:25:40.347Z,28.30
2023-03-21T05:28:20.394Z,28.70
2023-03-21T05:30:48.308Z,30.10
2023-03-21T05:33:15.461Z,29.70
2023-03-21T05:35:42.617Z,26.00
2023-03-21T05:38:10.577Z,28.30
2023-03-21T05:40:47.888Z,27.00
2023-03-21T05:43:14.802Z,27.80
2023-03-21T05:45:42.007Z,25.30
2023-03-21T05:48:09.489Z,20.30
2023-03-21T05:50:47.943Z,22.80
2023-03-21T05:53:18.020Z,24.70
2023-03-21T05:55:44.899Z,22.90
2023-03-21T05:58:17.982Z,22.10
2023-03-21T06:00:47.727Z,26.70
2023-03-21T06:03:19.959Z,23.60
2023-03-21T06:06:08.839Z,22.70
2023-03-21T06:08:39.111Z,23.80
2023-03-21T06:11:13.340Z,23.00
2023-03-21T06:13:40.419Z,19.60
2023-03-21T06:16:08.480Z,19.60
2023-03-21T06:18:35.936Z,19.10
2023-03-21T06:21:15.115Z,21.70
2023-03-21T06:23:42.093Z,21.80
2023-03-21T06:26:09.289Z,23.20
2023-03-21T06:28:36.574Z,22.60
2023-03-21T06:31:04.073Z,20.10
2023-03-21T06:33:33.386Z,20.10
2023-03-21T06:36:00.463Z,19.30
2023-03-21T06:38:28.511Z,20.60
2023-03-21T06:40:55.366Z,21.00
2023-03-21T06:43:23.973Z,20.40
2023-03-21T06:45:51.125Z,17.60
2023-03-21T06:48:18.204Z,19.20
2023-03-21T06:50:50.446Z,20.90
2023-03-21T06:53:20.854Z,17.90
2023-03-21T06:56:12.914Z,20.10
2023-03-21T06:58:40.558Z,16.90
2023-03-21T07:01:09.547Z,19.10
2023-03-21T07:03:43.241Z,17.50
2023-03-21T07:06:14.558Z,20.60
2023-03-21T07:08:41.780Z,18.20
2023-03-21T07:11:09.906Z,16.60
2023-03-21T07:13:36.848Z,15.70
2023-03-21T07:16:04.988Z,14.30
2023-03-21T07:18:32.435Z,16.30
2023-03-21T07:20:59.407Z,14.90
2023-03-21T07:23:27.160Z,19.70
2023-03-21T07:25:54.660Z,19.90
2023-03-21T07:28:22.972Z,12.80
2023-03-21T07:31:01.138Z,17.30
2023-03-21T07:33:28.614Z,16.40
2023-03-21T07:35:58.819Z,16.50
2023-03-21T07:38:26.772Z,16.00
2023-03-21T07:40:54.210Z,18.40
2023-03-21T07:43:21.812Z,15.90
2023-03-21T07:45:51.947Z,22.90
2023-03-21T07:48:19.738Z,18.60
2023-03-21T07:50:46.718Z,22.50
2023-03-21T07:53:13.645Z,26.20
2023-03-21T07:55:40.803Z,27.40
2023-03-21T07:58:07.806Z,24.20
2023-03-21T08:00:34.765Z,23.90
2023-03-21T08:03:02.037Z,20.90
2023-03-21T08:05:34.072Z,18.70
2023-03-21T08:08:01.441Z,17.90
2023-03-21T08:10:28.791Z,15.80
2023-03-21T08:12:55.936Z,22.10
2023-03-21T08:15:23.226Z,22.30
2023-03-21T08:17:50.465Z,20.10
2023-03-21T08:20:21.388Z,23.60
2023-03-21T08:22:49.592Z,27.30
2023-03-21T08:25:18.584Z,23.40
2023-03-21T08:27:47.053Z,20.60
2023-03-21T08:30:17.938Z,18.30
2023-03-21T08:32:45.100Z,15.30
2023-03-21T08:35:14.195Z,16.20
2023-03-21T08:37:41.464Z,15.70
2023-03-21T08:40:15.860Z,16.00
2023-03-21T08:42:43.731Z,15.60
2023-03-21T08:45:12.080Z,15.00
2023-03-21T08:47:39.554Z,16.20
2023-03-21T08:50:09.127Z,15.70
2023-03-21T08:52:37.341Z,12.10
2023-03-21T08:55:05.068Z,11.90
2023-03-21T08:57:32.000Z,13.90
2023-03-21T08:59:59.050Z,10.50
2023-03-21T09:02:25.951Z,11.40
2023-03-21T09:04:59.280Z,13.00
2023-03-21T09:07:28.060Z,9.60
2023-03-21T09:10:18.626Z,10.00
2023-03-21T09:12:41.813Z,9.20
2023-03-21T09:15:12.201Z,13.10
2023-03-21T09:17:42.595Z,11.20
2023-03-21T09:20:18.928Z,8.80
2023-03-21T09:22:52.138Z,9.10
2023-03-21T09:25:20.807Z,10.00
2023-03-21T09:27:48.223Z,7.80
2023-03-21T09:30:17.575Z,9.10
2023-03-21T09:32:49.621Z,8.10
2023-03-21T09:35:20.843Z,8.20
2023-03-21T09:37:49.180Z,8.00
2023-03-21T09:40:40.326Z,8.70
2023-03-21T09:43:35.731Z,7.60
2023-03-21T09:46:12.489Z,8.30
2023-03-21T09:49:02.169Z,7.40
2023-03-21T09:51:33.656Z,7.20
2023-03-21T09:54:07.635Z,9.10
2023-03-21T09:56:39.255Z,9.40
2023-03-21T09:59:09.258Z,10.80
2023-03-21T10:04:14.080Z,10.80
2023-03-21T10:06:42.976Z,11.40
2023-03-21T10:09:21.654Z,10.10
2023-03-21T10:11:54.348Z,7.70
2023-03-21T10:14:38.798Z,10.10
2023-03-21T10:17:34.305Z,9.50
2023-03-21T10:20:24.614Z,11.10
2023-03-21T10:22:55.343Z,11.10
2023-03-21T10:25:31.747Z,13.50
2023-03-21T10:28:01.198Z,12.70
2023-03-21T10:30:42.386Z,8.90
2023-03-21T10:33:15.608Z,7.80
2023-03-21T10:35:46.817Z,9.40
2023-03-21T10:38:18.950Z,7.70
2023-03-21T10:40:46.706Z,7.80
2023-03-21T10:43:37.517Z,6.60
2023-03-21T10:46:13.874Z,6.10
2023-03-21T10:48:47.048Z,5.90
2023-03-21T10:51:22.196Z,5.60
2023-03-21T10:53:57.112Z,26.10
2023-03-21T10:56:28.381Z,27.00
2023-03-21T10:59:01.178Z,7.40
2023-03-21T11:01:41.498Z,7.00
2023-03-21T11:04:22.646Z,7.40
2023-03-21T11:07:01.463Z,6.50
2023-03-21T11:09:55.891Z,8.30
2023-03-21T11:12:37.382Z,7.50
2023-03-21T11:15:27.588Z,6.90
2023-03-21T11:17:54.716Z,10.20
2023-03-21T11:20:22.246Z,8.10
2023-03-21T11:22:50.227Z,6.40
2023-03-21T11:25:25.649Z,7.20
2023-03-21T11:27:55.084Z,8.80
2023-03-21T11:30:28.067Z,9.80
2023-03-21T11:33:02.030Z,5.50
2023-03-21T11:35:34.560Z,7.20
2023-03-21T11:38:01.701Z,6.00
2023-03-21T11:40:34.033Z,7.80
2023-03-21T11:43:02.060Z,8.90
2023-03-21T11:45:32.024Z,6.70
2023-03-21T11:50:35.449Z,5.40
2023-03-21T11:53:28.195Z,5.80
2023-03-21T11:56:16.795Z,4.50
2023-03-21T12:01:10.425Z,5.00
2023-03-21T12:03:48.627Z,6.30
2023-03-21T12:06:37.739Z,4.00
2023-03-21T12:09:13.296Z,3.90
2023-03-21T12:12:18.618Z,3.80
2023-03-21T12:15:26.043Z,3.50
2023-03-21T12:17:55.801Z,3.50
2023-03-21T12:20:31.660Z,3.50
2023-03-21T12:23:21.695Z,3.80
2023-03-21T12:28:32.438Z,5.50
2023-03-21T12:31:20.181Z,4.70
2023-03-21T12:33:56.489Z,4.00
2023-03-21T12:36:48.302Z,4.10
2023-03-21T12:39:39.707Z,4.50
2023-03-21T12:42:42.004Z,5.00
2023-03-21T12:45:16.192Z,4.60
2023-03-21T12:47:49.054Z,4.70
2023-03-21T12:50:23.593Z,4.80
2023-03-21T12:52:58.716Z,4.30
2023-03-21T12:55:31.005Z,4.40
2023-03-21T12:58:10.532Z,4.70
2023-03-21T13:00:53.668Z,6.90
2023-03-21T13:03:38.946Z,5.40
2023-03-21T13:06:09.663Z,5.40
2023-03-21T13:11:07.273Z,4.50
2023-03-21T13:13:47.225Z,6.20
2023-03-21T13:16:23.795Z,5.20
2023-03-21T13:19:10.948Z,5.70
2023-03-21T13:21:51.349Z,4.10
2023-03-21T13:24:21.083Z,4.20
2023-03-21T13:27:26.408Z,4.40
2023-03-21T13:30:05.398Z,5.20
2023-03-21T13:32:37.477Z,6.10
2023-03-21T13:35:13.864Z,4.40
2023-03-21T13:37:49.012Z,4.80
2023-03-21T13:40:29.358Z,5.00
2023-03-21T13:42:59.985Z,4.80
2023-03-21T13:45:52.763Z,5.40
2023-03-21T13:48:29.588Z,5.40
2023-03-21T13:51:05.275Z,5.00
2023-03-21T13:53:37.409Z,5.10
2023-03-21T13:56:12.053Z,5.30
2023-03-21T13:58:52.586Z,5.30
2023-03-21T14:01:26.468Z,5.70
2023-03-21T14:03:59.833Z,5.20
2023-03-21T14:06:39.601Z,5.80
2023-03-21T14:09:07.878Z,5.60
2023-03-21T14:11:38.308Z,6.50
2023-03-21T14:14:06.268Z,6.20
2023-03-21T14:16:34.029Z,7.00
2023-03-21T14:19:04.397Z,8.00
2023-03-21T14:21:37.520Z,7.20
2023-03-21T14:24:12.988Z,7.60
2023-03-21T14:26:59.176Z,7.90
2023-03-21T14:29:35.901Z,8.30
2023-03-21T14:32:03.759Z,7.20
2023-03-21T14:34:35.224Z,7.60
2023-03-21T14:37:02.538Z,8.00
2023-03-21T14:39:32.601Z,5.20
2023-03-21T14:44:56.800Z,3.70
2023-03-21T14:49:54.818Z,2.90
2023-03-21T14:52:36.570Z,3.70
2023-03-21T14:55:17.452Z,3.50
2023-03-21T14:57:44.591Z,3.50
2023-03-21T15:00:43.228Z,4.40
2023-03-21T15:03:13.668Z,6.30
2023-03-21T15:05:42.837Z,4.10
2023-03-21T15:08:17.177Z,5.90
2023-03-21T15:11:08.656Z,6.00
2023-03-21T15:13:45.609Z,7.90
2023-03-21T15:16:15.114Z,6.60
2023-03-21T15:18:44.808Z,5.90
2023-03-21T15:21:27.855Z,6.40
2023-03-21T15:23:59.538Z,6.50
2023-03-21T15:26:27.698Z,5.40
2023-03-21T15:29:00.563Z,5.20
2023-03-21T15:31:35.689Z,5.40
2023-03-21T15:34:04.226Z,6.40
2023-03-21T15:36:38.093Z,7.00
2023-03-21T15:39:08.855Z,5.10
2023-03-21T15:41:35.856Z,5.90
2023-03-21T15:44:06.647Z,5.30
2023-03-21T15:46:41.631Z,6.90
2023-03-21T15:49:29.721Z,6.20
2023-03-21T15:52:15.099Z,5.80
2023-03-21T15:54:48.169Z,6.40
2023-03-21T15:57:30.140Z,7.00
2023-03-21T16:00:07.417Z,7.20
2023-03-21T16:02:42.062Z,10.90
2023-03-21T16:05:29.210Z,11.40
2023-03-21T16:08:27.547Z,10.90
2023-03-21T16:10:54.780Z,9.90
2023-03-21T16:13:21.848Z,9.50
2023-03-21T16:15:48.752Z,11.30
2023-03-21T16:18:18.239Z,13.50
2023-03-21T16:20:47.170Z,15.50
2023-03-21T16:23:16.034Z,14.90
2023-03-21T16:25:44.187Z,14.00
2023-03-21T16:28:18.010Z,15.30
2023-03-21T16:30:46.060Z,17.40
2023-03-21T16:33:13.896Z,18.90
2023-03-21T16:35:41.482Z,19.40
2023-03-21T16:38:12.556Z,23.00
2023-03-21T16:40:41.931Z,23.70
2023-03-21T16:43:10.483Z,24.90
2023-03-21T16:45:38.591Z,21.50
2023-03-21T16:48:06.255Z,22.60
2023-03-21T16:50:37.299Z,23.80
2023-03-21T16:53:04.519Z,18.90
2023-03-21T16:55:33.793Z,20.50
2023-03-21T16:58:01.542Z,14.70
2023-03-21T17:00:31.036Z,14.50
2023-03-21T17:03:01.861Z,49.00
2023-03-21T17:05:33.244Z,38.80
2023-03-21T17:08:04.765Z,29.30
2023-03-21T17:10:32.980Z,16.80
2023-03-21T17:13:00.659Z,48.20
2023-03-21T17:15:27.944Z,89.80
2023-03-21T17:17:55.993Z,76.70
2023-03-21T17:20:26.805Z,23.50
2023-03-21T17:22:53.796Z,20.30
2023-03-21T17:25:20.987Z,12.80
2023-03-21T17:27:49.461Z,11.70
2023-03-21T17:30:29.201Z,14.30
2023-03-21T17:32:56.210Z,21.50
2023-03-21T17:35:24.598Z,17.70
2023-03-21T17:37:52.441Z,28.50
2023-03-21T17:40:28.544Z,31.60
2023-03-21T17:42:58.254Z,35.00
2023-03-21T17:45:25.842Z,34.40
2023-03-21T17:47:55.564Z,35.30
2023-03-21T17:50:27.388Z,34.80
2023-03-21T17:52:56.747Z,31.60
2023-03-21T17:55:24.518Z,33.20
2023-03-21T17:57:52.281Z,37.20
2023-03-21T18:00:23.372Z,59.70
2023-03-21T18:02:51.843Z,45.40
2023-03-21T18:05:22.092Z,40.80
2023-03-21T18:08:09.808Z,31.50
2023-03-21T18:10:38.613Z,24.70
2023-03-21T18:13:06.334Z,32.80
2023-03-21T18:15:33.821Z,25.60
2023-03-21T18:18:01.739Z,30.20
2023-03-21T18:20:50.391Z,31.50
2023-03-21T18:23:19.087Z,122.40
2023-03-21T18:25:46.570Z,106.80
2023-03-21T18:28:17.622Z,63.80
2023-03-21T18:33:37.437Z,52.30
2023-03-21T18:36:07.473Z,53.30
2023-03-21T18:38:36.673Z,49.10
2023-03-21T18:41:04.518Z,67.30
2023-03-21T18:46:19.131Z,93.60
2023-03-21T18:48:46.686Z,84.60
2023-03-21T18:51:14.205Z,147.10
2023-03-21T18:53:41.839Z,290.10
2023-03-21T18:56:10.604Z,225.70
2023-03-21T18:58:38.784Z,204.90
2023-03-21T19:01:06.599Z,186.90
2023-03-21T19:03:37.116Z,228.00
2023-03-21T19:06:06.638Z,215.40
2023-03-21T19:08:38.815Z,265.20
2023-03-21T19:11:07.155Z,320.90
2023-03-21T19:13:34.816Z,245.00
2023-03-21T19:16:03.184Z,218.00
2023-03-21T19:21:21.909Z,287.50
2023-03-21T19:26:36.553Z,162.10
2023-03-21T19:29:04.207Z,142.40
2023-03-21T19:31:31.644Z,182.50
2023-03-21T19:33:59.704Z,188.80
2023-03-21T19:36:27.430Z,197.60
2023-03-21T19:38:54.509Z,176.90
2023-03-21T19:41:21.533Z,165.00
2023-03-21T19:43:54.842Z,156.40
2023-03-21T19:46:25.661Z,125.70
2023-03-21T19:48:56.560Z,137.70
2023-03-21T19:51:29.818Z,208.00
2023-03-21T19:54:04.396Z,354.30
2023-03-21T19:56:32.118Z,149.30
2023-03-21T19:59:01.853Z,152.20
2023-03-21T20:01:29.143Z,170.30
2023-03-21T20:03:57.747Z,144.80
2023-03-21T20:06:25.533Z,169.90
2023-03-21T20:09:34.145Z,320.80
2023-03-21T20:11:41.143Z,293.10
2023-03-21T20:14:08.295Z,296.00
2023-03-21T20:16:37.206Z,242.90
2023-03-21T20:19:08.511Z,219.70
2023-03-21T20:21:46.534Z,208.30
2023-03-21T20:24:17.041Z,183.00
2023-03-21T20:26:46.231Z,179.60
2023-03-21T20:30:07.543Z,175.80
2023-03-21T20:32:00.951Z,183.30
2023-03-21T20:34:30.268Z,168.60
2023-03-21T20:36:58.977Z,173.10
2023-03-21T20:39:28.641Z,194.10
2023-03-21T20:41:59.405Z,264.80
2023-03-21T20:44:51.835Z,231.00
2023-03-21T20:47:14.938Z,220.40
2023-03-21T20:49:42.285Z,236.50
2023-03-21T20:55:00.008Z,203.70
2023-03-21T20:57:28.170Z,212.30
2023-03-21T20:59:55.621Z,225.30
2023-03-21T21:02:23.935Z,232.40
2023-03-21T21:05:23.690Z,230.90
2023-03-21T21:07:43.140Z,250.40
2023-03-21T21:10:14.375Z,252.60
2023-03-21T21:12:45.422Z,245.40
2023-03-21T21:15:15.178Z,255.20
2023-03-21T21:20:29.939Z,245.90
2023-03-21T21:23:00.004Z,265.00
2023-03-21T21:25:29.200Z,241.50
2023-03-21T21:27:56.532Z,217.80
2023-03-21T21:30:26.170Z,204.10
2023-03-21T21:32:54.441Z,197.60
2023-03-21T21:35:22.962Z,177.70
2023-03-21T21:37:51.792Z,167.40
2023-03-21T21:40:20.750Z,169.30
2023-03-21T21:42:51.044Z,162.30
2023-03-21T21:45:20.064Z,165.70
2023-03-21T21:47:47.710Z,165.00
2023-03-21T21:50:14.681Z,150.40
2023-03-21T21:52:54.857Z,156.80
2023-03-21T21:55:22.759Z,151.50
2023-03-21T21:57:53.727Z,155.40
2023-03-21T22:00:21.125Z,147.00
2023-03-21T22:02:48.449Z,143.20
2023-03-21T22:05:17.309Z,144.50
2023-03-21T22:07:47.310Z,149.10
2023-03-21T22:10:16.736Z,146.50
2023-03-21T22:12:44.051Z,141.30
2023-03-21T22:15:13.773Z,142.10
2023-03-21T22:17:42.516Z,140.30
2023-03-21T22:20:12.688Z,137.80
2023-03-21T22:22:40.747Z,135.50
2023-03-21T22:25:10.862Z,142.00
2023-03-21T22:27:38.878Z,143.60
2023-03-21T22:30:08.789Z,148.10
2023-03-21T22:35:05.776Z,136.00
2023-03-21T22:37:35.798Z,138.40
2023-03-21T22:40:06.115Z,120.20
2023-03-21T22:42:33.346Z,127.10
2023-03-21T22:45:02.138Z,132.80
2023-03-21T22:47:32.071Z,131.00
2023-03-21T22:50:01.289Z,128.80
2023-03-21T22:52:28.393Z,126.20
2023-03-21T22:54:55.388Z,132.20
2023-03-21T22:57:22.816Z,133.20
2023-03-21T22:59:50.043Z,126.50
2023-03-21T23:02:18.537Z,134.30
2023-03-21T23:04:45.652Z,133.30
2023-03-21T23:07:12.666Z,137.90
2023-03-21T23:09:39.561Z,133.50
2023-03-21T23:12:06.570Z,134.50
2023-03-21T23:14:33.519Z,135.90
2023-03-21T23:17:02.819Z,131.20
2023-03-21T23:19:30.855Z,133.50
2023-03-21T23:21:57.948Z,129.30
2023-03-21T23:24:25.722Z,131.20
2023-03-21T23:26:53.092Z,119.20
2023-03-21T23:29:20.213Z,124.00
2023-03-21T23:31:47.520Z,124.50
2023-03-21T23:34:14.756Z,120.10
2023-03-21T23:36:42.034Z,114.30
2023-03-21T23:39:09.883Z,112.80
2023-03-21T23:41:36.804Z,120.30
2023-03-21T23:44:04.626Z,110.60
2023-03-21T23:46:32.026Z,106.30
2023-03-21T23:48:59.261Z,116.60
2023-03-21T23:51:26.291Z,110.20
2023-03-21T23:53:54.225Z,103.40
2023-03-21T23:56:23.835Z,102.80
2023-03-21T23:58:51.555Z,108.70
